Terminal Aerodrome Forecast
Issued by NWS Paducah, KY

Home | Current Version | Previous Version | Text Only | Print | Product List | Glossary On
Versions: 1 2 3 4 5 6 7 8 9 10 11 12 13 14
408
FTUS43 KPAH 282026 AAA
TAFEVV
TAF AMD
KEVV 282026Z 2820/2918 20012G20KT P6SM BKN050
     FM290000 17005KT P6SM SCT035
     FM291400 23007KT P6SM SCT040=

USA.gov is the U.S. government's official web portal to all federal, state and local government web resources and services.